sensor_id;sensor_type;location;lat;lon;timestamp;temperature;humidity
9971;DHT22;5026;51.494;11.974;2022-12-05T00:02:16;1.80;99.90
9971;DHT22;5026;51.494;11.974;2022-12-05T00:04:43;1.90;99.90
9971;DHT22;5026;51.494;11.974;2022-12-05T00:07:10;1.80;99.90
9971;DHT22;5026;51.494;11.974;2022-12-05T00:12:05;1.80;99.90
9971;DHT22;5026;51.494;11.974;2022-12-05T00:14:31;1.90;99.90
9971;DHT22;5026;51.494;11.974;2022-12-05T00:16:59;1.80;99.90
9971;DHT22;5026;51.494;11.974;2022-12-05T00:19:27;1.80;99.90
9971;DHT22;5026;51.494;11.974;2022-12-05T00:24:22;1.90;99.90
9971;DHT22;5026;51.494;11.974;2022-12-05T00:26:49;1.90;99.90
9971;DHT22;5026;51.494;11.974;2022-12-05T00:34:10;2.00;99.90
9971;DHT22;5026;51.494;11.974;2022-12-05T00:36:39;2.00;99.90
9971;DHT22;5026;51.494;11.974;2022-12-05T00:39:07;2.10;99.90
9971;DHT22;5026;51.494;11.974;2022-12-05T00:41:34;2.10;99.90
9971;DHT22;5026;51.494;11.974;2022-12-05T00:44:02;2.10;99.90
9971;DHT22;5026;51.494;11.974;2022-12-05T00:46:30;2.10;99.90
9971;DHT22;5026;51.494;11.974;2022-12-05T00:48:59;2.00;99.90
9971;DHT22;5026;51.494;11.974;2022-12-05T00:51:28;2.10;99.90
9971;DHT22;5026;51.494;11.974;2022-12-05T00:53:57;2.00;99.90
9971;DHT22;5026;51.494;11.974;2022-12-05T00:56:25;2.10;99.90
9971;DHT22;5026;51.494;11.974;2022-12-05T00:58:54;2.00;99.90
9971;DHT22;5026;51.494;11.974;2022-12-05T01:01:22;2.00;99.90
9971;DHT22;5026;51.494;11.974;2022-12-05T01:03:54;1.90;99.90
9971;DHT22;5026;51.494;11.974;2022-12-05T01:06:22;2.00;99.90
9971;DHT22;5026;51.494;11.974;2022-12-05T01:08:51;1.90;99.90
9971;DHT22;5026;51.494;11.974;2022-12-05T01:11:20;1.90;99.90
9971;DHT22;5026;51.494;11.974;2022-12-05T01:13:47;1.90;99.90
9971;DHT22;5026;51.494;11.974;2022-12-05T01:16:15;2.00;99.90
9971;DHT22;5026;51.494;11.974;2022-12-05T01:18:42;2.00;99.90
9971;DHT22;5026;51.494;11.974;2022-12-05T01:21:10;2.00;99.90
9971;DHT22;5026;51.494;11.974;2022-12-05T01:23:37;2.00;99.90
9971;DHT22;5026;51.494;11.974;2022-12-05T01:26:05;2.10;99.90
9971;DHT22;5026;51.494;11.974;2022-12-05T01:28:34;2.00;99.90
9971;DHT22;5026;51.494;11.974;2022-12-05T01:31:04;2.00;99.90
9971;DHT22;5026;51.494;11.974;2022-12-05T01:33:33;2.00;99.90
9971;DHT22;5026;51.494;11.974;2022-12-05T01:36:00;2.10;99.90
9971;DHT22;5026;51.494;11.974;2022-12-05T01:41:01;2.00;99.90
9971;DHT22;5026;51.494;11.974;2022-12-05T01:43:28;2.00;99.90
9971;DHT22;5026;51.494;11.974;2022-12-05T01:45:57;2.00;99.90
9971;DHT22;5026;51.494;11.974;2022-12-05T01:48:26;2.00;99.90
9971;DHT22;5026;51.494;11.974;2022-12-05T01:50:53;2.00;99.90
9971;DHT22;5026;51.494;11.974;2022-12-05T01:53:21;2.00;99.90
9971;DHT22;5026;51.494;11.974;2022-12-05T01:55:49;2.10;99.90
9971;DHT22;5026;51.494;11.974;2022-12-05T01:58:17;2.10;99.90
9971;DHT22;5026;51.494;11.974;2022-12-05T02:00:46;2.10;99.90
9971;DHT22;5026;51.494;11.974;2022-12-05T02:03:17;2.10;99.90
9971;DHT22;5026;51.494;11.974;2022-12-05T02:05:47;2.20;99.90
9971;DHT22;5026;51.494;11.974;2022-12-05T02:08:15;2.10;99.90
9971;DHT22;5026;51.494;11.974;2022-12-05T02:10:44;2.20;99.90
9971;DHT22;5026;51.494;11.974;2022-12-05T02:13:24;2.20;99.90
9971;DHT22;5026;51.494;11.974;2022-12-05T02:15:59;2.20;99.90
9971;DHT22;5026;51.494;11.974;2022-12-05T02:18:40;2.20;99.90
9971;DHT22;5026;51.494;11.974;2022-12-05T02:21:35;2.20;99.90
9971;DHT22;5026;51.494;11.974;2022-12-05T02:24:20;2.20;99.90
9971;DHT22;5026;51.494;11.974;2022-12-05T02:26:59;2.20;99.90
9971;DHT22;5026;51.494;11.974;2022-12-05T02:29:57;2.20;99.90
9971;DHT22;5026;51.494;11.974;2022-12-05T02:32:40;2.20;99.90
9971;DHT22;5026;51.494;11.974;2022-12-05T02:35:17;2.30;99.90
9971;DHT22;5026;51.494;11.974;2022-12-05T02:37:52;2.30;99.90
9971;DHT22;5026;51.494;11.974;2022-12-05T02:40:23;2.30;99.90
9971;DHT22;5026;51.494;11.974;2022-12-05T02:42:57;2.40;99.90
9971;DHT22;5026;51.494;11.974;2022-12-05T02:45:29;2.40;99.90
9971;DHT22;5026;51.494;11.974;2022-12-05T02:48:02;2.50;99.90
9971;DHT22;5026;51.494;11.974;2022-12-05T02:50:33;2.50;99.90
9971;DHT22;5026;51.494;11.974;2022-12-05T02:53:06;2.50;99.90
9971;DHT22;5026;51.494;11.974;2022-12-05T02:55:34;2.40;99.90
9971;DHT22;5026;51.494;11.974;2022-12-05T02:58:04;2.50;99.90
9971;DHT22;5026;51.494;11.974;2022-12-05T03:00:36;2.40;99.90
9971;DHT22;5026;51.494;11.974;2022-12-05T03:03:13;2.40;99.90
9971;DHT22;5026;51.494;11.974;2022-12-05T03:05:43;2.40;99.90
9971;DHT22;5026;51.494;11.974;2022-12-05T03:08:15;2.40;99.90
9971;DHT22;5026;51.494;11.974;2022-12-05T03:10:44;2.40;99.90
9971;DHT22;5026;51.494;11.974;2022-12-05T03:13:16;3.70;99.90
9971;DHT22;5026;51.494;11.974;2022-12-05T03:15:48;3.40;99.90
9971;DHT22;5026;51.494;11.974;2022-12-05T03:18:20;2.50;99.90
9971;DHT22;5026;51.494;11.974;2022-12-05T03:20:53;2.60;99.90
9971;DHT22;5026;51.494;11.974;2022-12-05T03:23:23;3.70;99.90
9971;DHT22;5026;51.494;11.974;2022-12-05T03:25:56;2.80;99.90
9971;DHT22;5026;51.494;11.974;2022-12-05T03:28:31;2.50;99.90
9971;DHT22;5026;51.494;11.974;2022-12-05T03:31:07;2.50;99.90
9971;DHT22;5026;51.494;11.974;2022-12-05T03:33:39;2.50;99.90
9971;DHT22;5026;51.494;11.974;2022-12-05T03:36:12;2.40;99.90
9971;DHT22;5026;51.494;11.974;2022-12-05T03:38:46;2.40;99.90
9971;DHT22;5026;51.494;11.974;2022-12-05T03:41:21;2.40;99.90
9971;DHT22;5026;51.494;11.974;2022-12-05T03:43:53;2.40;99.90
9971;DHT22;5026;51.494;11.974;2022-12-05T03:46:25;2.40;99.90
9971;DHT22;5026;51.494;11.974;2022-12-05T03:48:56;2.40;99.90
9971;DHT22;5026;51.494;11.974;2022-12-05T03:51:40;2.90;99.90
9971;DHT22;5026;51.494;11.974;2022-12-05T03:54:13;2.40;99.90
9971;DHT22;5026;51.494;11.974;2022-12-05T03:56:46;2.50;99.90
9971;DHT22;5026;51.494;11.974;2022-12-05T03:59:21;2.50;99.90
9971;DHT22;5026;51.494;11.974;2022-12-05T04:01:55;2.50;99.90
9971;DHT22;5026;51.494;11.974;2022-12-05T04:04:27;2.60;99.90
9971;DHT22;5026;51.494;11.974;2022-12-05T04:06:56;2.60;99.90
9971;DHT22;5026;51.494;11.974;2022-12-05T04:09:28;2.60;99.90
9971;DHT22;5026;51.494;11.974;2022-12-05T04:12:00;2.50;99.90
9971;DHT22;5026;51.494;11.974;2022-12-05T04:14:33;2.50;99.90
9971;DHT22;5026;51.494;11.974;2022-12-05T04:17:11;2.40;99.90
9971;DHT22;5026;51.494;11.974;2022-12-05T04:19:45;2.50;99.90
9971;DHT22;5026;51.494;11.974;2022-12-05T04:22:30;2.50;99.90
9971;DHT22;5026;51.494;11.974;2022-12-05T04:24:59;2.50;99.90
9971;DHT22;5026;51.494;11.974;2022-12-05T04:27:51;2.60;99.90
9971;DHT22;5026;51.494;11.974;2022-12-05T04:30:22;2.60;99.90
9971;DHT22;5026;51.494;11.974;2022-12-05T04:32:56;2.60;99.90
9971;DHT22;5026;51.494;11.974;2022-12-05T04:35:29;2.60;99.90
9971;DHT22;5026;51.494;11.974;2022-12-05T04:38:02;2.70;99.90
9971;DHT22;5026;51.494;11.974;2022-12-05T04:40:34;2.70;99.90
9971;DHT22;5026;51.494;11.974;2022-12-05T04:43:03;2.80;99.90
9971;DHT22;5026;51.494;11.974;2022-12-05T04:45:33;2.80;99.90
9971;DHT22;5026;51.494;11.974;2022-12-05T04:48:07;2.80;99.90
9971;DHT22;5026;51.494;11.974;2022-12-05T04:50:37;2.90;99.90
9971;DHT22;5026;51.494;11.974;2022-12-05T04:55:34;2.90;99.90
9971;DHT22;5026;51.494;11.974;2022-12-05T04:58:05;2.80;99.90
9971;DHT22;5026;51.494;11.974;2022-12-05T05:00:39;2.90;99.90
9971;DHT22;5026;51.494;11.974;2022-12-05T05:03:12;2.80;99.90
9971;DHT22;5026;51.494;11.974;2022-12-05T05:05:44;2.80;99.90
9971;DHT22;5026;51.494;11.974;2022-12-05T05:08:16;3.70;99.90
9971;DHT22;5026;51.494;11.974;2022-12-05T05:10:51;2.90;99.90
9971;DHT22;5026;51.494;11.974;2022-12-05T05:13:21;2.80;99.90
9971;DHT22;5026;51.494;11.974;2022-12-05T05:18:16;2.90;99.90
9971;DHT22;5026;51.494;11.974;2022-12-05T05:20:43;2.80;99.90
9971;DHT22;5026;51.494;11.974;2022-12-05T05:28:05;2.80;99.90
9971;DHT22;5026;51.494;11.974;2022-12-05T05:30:32;2.80;99.90
9971;DHT22;5026;51.494;11.974;2022-12-05T05:32:59;2.90;99.90
9971;DHT22;5026;51.494;11.974;2022-12-05T05:35:27;2.90;99.90
9971;DHT22;5026;51.494;11.974;2022-12-05T05:40:21;2.80;99.90
9971;DHT22;5026;51.494;11.974;2022-12-05T05:42:48;2.90;99.90
9971;DHT22;5026;51.494;11.974;2022-12-05T05:47:43;2.90;99.90
9971;DHT22;5026;51.494;11.974;2022-12-05T05:50:11;2.90;99.90
9971;DHT22;5026;51.494;11.974;2022-12-05T05:52:40;2.90;99.90
9971;DHT22;5026;51.494;11.974;2022-12-05T05:55:07;2.90;99.90
9971;DHT22;5026;51.494;11.974;2022-12-05T05:57:35;6.70;99.90
9971;DHT22;5026;51.494;11.974;2022-12-05T06:00:04;2.80;99.90
9971;DHT22;5026;51.494;11.974;2022-12-05T06:02:32;2.90;99.90
9971;DHT22;5026;51.494;11.974;2022-12-05T06:04:59;2.90;99.90
9971;DHT22;5026;51.494;11.974;2022-12-05T06:07:26;2.90;99.90
9971;DHT22;5026;51.494;11.974;2022-12-05T06:09:55;2.90;99.90
9971;DHT22;5026;51.494;11.974;2022-12-05T06:17:16;3.00;99.90
9971;DHT22;5026;51.494;11.974;2022-12-05T06:19:43;3.00;99.90
9971;DHT22;5026;51.494;11.974;2022-12-05T06:27:06;3.10;99.90
9971;DHT22;5026;51.494;11.974;2022-12-05T06:29:33;3.10;99.90
9971;DHT22;5026;51.494;11.974;2022-12-05T06:32:01;3.00;99.90
9971;DHT22;5026;51.494;11.974;2022-12-05T06:39:24;3.10;99.90
9971;DHT22;5026;51.494;11.974;2022-12-05T06:41:51;3.00;99.90
9971;DHT22;5026;51.494;11.974;2022-12-05T06:44:19;3.00;99.90
9971;DHT22;5026;51.494;11.974;2022-12-05T06:46:46;3.00;99.90
9971;DHT22;5026;51.494;11.974;2022-12-05T06:49:13;3.00;99.90
9971;DHT22;5026;51.494;11.974;2022-12-05T06:54:08;3.00;99.90
9971;DHT22;5026;51.494;11.974;2022-12-05T06:56:36;3.00;99.90
9971;DHT22;5026;51.494;11.974;2022-12-05T07:01:32;2.80;99.90
9971;DHT22;5026;51.494;11.974;2022-12-05T07:04:05;2.80;99.90
9971;DHT22;5026;51.494;11.974;2022-12-05T07:11:27;2.80;99.90
9971;DHT22;5026;51.494;11.974;2022-12-05T07:13:54;2.70;99.90
9971;DHT22;5026;51.494;11.974;2022-12-05T07:18:50;2.70;99.90
9971;DHT22;5026;51.494;11.974;2022-12-05T07:26:16;2.80;99.90
9971;DHT22;5026;51.494;11.974;2022-12-05T07:31:12;2.90;99.90
9971;DHT22;5026;51.494;11.974;2022-12-05T07:33:39;2.90;99.90
9971;DHT22;5026;51.494;11.974;2022-12-05T07:36:10;3.00;99.90
9971;DHT22;5026;51.494;11.974;2022-12-05T07:41:06;3.00;99.90
9971;DHT22;5026;51.494;11.974;2022-12-05T07:46:01;3.10;99.90
9971;DHT22;5026;51.494;11.974;2022-12-05T07:50:59;3.10;99.90
9971;DHT22;5026;51.494;11.974;2022-12-05T07:53:28;3.10;99.90
9971;DHT22;5026;51.494;11.974;2022-12-05T07:55:58;3.10;99.90
9971;DHT22;5026;51.494;11.974;2022-12-05T07:58:26;3.10;99.90
9971;DHT22;5026;51.494;11.974;2022-12-05T08:03:21;3.10;99.90
9971;DHT22;5026;51.494;11.974;2022-12-05T08:08:15;3.20;99.90
9971;DHT22;5026;51.494;11.974;2022-12-05T08:10:43;3.30;99.90
9971;DHT22;5026;51.494;11.974;2022-12-05T08:18:04;3.30;99.90
9971;DHT22;5026;51.494;11.974;2022-12-05T08:20:31;3.30;99.90
9971;DHT22;5026;51.494;11.974;2022-12-05T08:22:58;3.30;99.90
9971;DHT22;5026;51.494;11.974;2022-12-05T08:25:28;3.30;99.90
9971;DHT22;5026;51.494;11.974;2022-12-05T08:27:57;3.30;99.90
9971;DHT22;5026;51.494;11.974;2022-12-05T08:32:51;3.30;99.90
9971;DHT22;5026;51.494;11.974;2022-12-05T08:35:18;3.30;99.90
9971;DHT22;5026;51.494;11.974;2022-12-05T08:37:44;3.30;99.90
9971;DHT22;5026;51.494;11.974;2022-12-05T08:45:08;3.30;99.90
9971;DHT22;5026;51.494;11.974;2022-12-05T08:47:35;3.40;99.90
9971;DHT22;5026;51.494;11.974;2022-12-05T08:50:02;3.40;99.90
9971;DHT22;5026;51.494;11.974;2022-12-05T08:54:56;3.60;99.90
9971;DHT22;5026;51.494;11.974;2022-12-05T08:59:50;3.70;99.90
9971;DHT22;5026;51.494;11.974;2022-12-05T09:02:20;3.80;99.90
9971;DHT22;5026;51.494;11.974;2022-12-05T09:04:49;3.80;99.90
9971;DHT22;5026;51.494;11.974;2022-12-05T09:07:17;3.90;99.90
9971;DHT22;5026;51.494;11.974;2022-12-05T09:17:06;3.90;99.90
9971;DHT22;5026;51.494;11.974;2022-12-05T09:19:34;3.90;99.90
9971;DHT22;5026;51.494;11.974;2022-12-05T09:24:28;3.90;99.90
9971;DHT22;5026;51.494;11.974;2022-12-05T09:29:22;3.80;99.90
9971;DHT22;5026;51.494;11.974;2022-12-05T09:31:50;3.80;99.90
9971;DHT22;5026;51.494;11.974;2022-12-05T09:36:47;3.80;99.90
9971;DHT22;5026;51.494;11.974;2022-12-05T09:39:17;3.60;99.90
9971;DHT22;5026;51.494;11.974;2022-12-05T09:45:07;3.70;99.90
9971;DHT22;5026;51.494;11.974;2022-12-05T09:47:47;3.70;99.90
9971;DHT22;5026;51.494;11.974;2022-12-05T09:50:18;3.70;99.90
9971;DHT22;5026;51.494;11.974;2022-12-05T09:53:00;3.80;99.90
9971;DHT22;5026;51.494;11.974;2022-12-05T09:55:34;3.90;99.90
9971;DHT22;5026;51.494;11.974;2022-12-05T09:58:02;3.90;99.90
9971;DHT22;5026;51.494;11.974;2022-12-05T10:00:31;3.90;99.90
9971;DHT22;5026;51.494;11.974;2022-12-05T10:03:05;4.00;99.90
9971;DHT22;5026;51.494;11.974;2022-12-05T10:05:39;4.10;99.90
9971;DHT22;5026;51.494;11.974;2022-12-05T10:08:18;4.10;99.90
9971;DHT22;5026;51.494;11.974;2022-12-05T10:10:59;4.20;99.90
9971;DHT22;5026;51.494;11.974;2022-12-05T10:13:44;4.30;99.90
9971;DHT22;5026;51.494;11.974;2022-12-05T10:16:18;4.40;99.90
9971;DHT22;5026;51.494;11.974;2022-12-05T10:18:51;4.50;99.90
9971;DHT22;5026;51.494;11.974;2022-12-05T10:21:23;4.50;99.90
9971;DHT22;5026;51.494;11.974;2022-12-05T10:23:54;4.50;99.90
9971;DHT22;5026;51.494;11.974;2022-12-05T10:26:24;5.20;99.90
9971;DHT22;5026;51.494;11.974;2022-12-05T10:28:56;4.60;99.90
9971;DHT22;5026;51.494;11.974;2022-12-05T10:31:28;4.60;99.90
9971;DHT22;5026;51.494;11.974;2022-12-05T10:34:02;4.60;99.90
9971;DHT22;5026;51.494;11.974;2022-12-05T10:36:29;4.60;99.90
9971;DHT22;5026;51.494;11.974;2022-12-05T10:38:59;4.60;99.90
9971;DHT22;5026;51.494;11.974;2022-12-05T10:41:26;8.50;99.90
9971;DHT22;5026;51.494;11.974;2022-12-05T10:43:55;4.50;99.90
9971;DHT22;5026;51.494;11.974;2022-12-05T10:51:24;4.50;99.90
9971;DHT22;5026;51.494;11.974;2022-12-05T10:53:52;4.50;99.90
9971;DHT22;5026;51.494;11.974;2022-12-05T10:56:41;4.50;99.90
9971;DHT22;5026;51.494;11.974;2022-12-05T10:59:10;4.50;99.90
9971;DHT22;5026;51.494;11.974;2022-12-05T11:01:43;4.50;99.90
9971;DHT22;5026;51.494;11.974;2022-12-05T11:04:23;4.50;99.90
9971;DHT22;5026;51.494;11.974;2022-12-05T11:06:53;4.50;99.90
9971;DHT22;5026;51.494;11.974;2022-12-05T11:09:23;4.50;99.90
9971;DHT22;5026;51.494;11.974;2022-12-05T11:12:02;4.50;99.90
9971;DHT22;5026;51.494;11.974;2022-12-05T11:14:32;4.50;99.90
9971;DHT22;5026;51.494;11.974;2022-12-05T11:17:02;4.50;99.90
9971;DHT22;5026;51.494;11.974;2022-12-05T11:19:31;4.40;99.90
9971;DHT22;5026;51.494;11.974;2022-12-05T11:21:59;4.40;99.90
9971;DHT22;5026;51.494;11.974;2022-12-05T11:24:28;4.50;99.90
9971;DHT22;5026;51.494;11.974;2022-12-05T11:26:58;4.50;99.90
9971;DHT22;5026;51.494;11.974;2022-12-05T11:29:34;4.50;99.90
9971;DHT22;5026;51.494;11.974;2022-12-05T11:32:01;4.40;99.90
9971;DHT22;5026;51.494;11.974;2022-12-05T11:34:34;4.30;99.90
9971;DHT22;5026;51.494;11.974;2022-12-05T11:37:09;4.40;99.90
9971;DHT22;5026;51.494;11.974;2022-12-05T11:42:22;4.30;99.90
9971;DHT22;5026;51.494;11.974;2022-12-05T11:45:14;4.30;99.90
9971;DHT22;5026;51.494;11.974;2022-12-05T11:47:59;4.40;99.90
9971;DHT22;5026;51.494;11.974;2022-12-05T11:50:38;4.30;99.90
9971;DHT22;5026;51.494;11.974;2022-12-05T11:53:25;4.30;99.90
9971;DHT22;5026;51.494;11.974;2022-12-05T11:56:00;4.20;99.90
9971;DHT22;5026;51.494;11.974;2022-12-05T11:58:59;4.20;99.90
9971;DHT22;5026;51.494;11.974;2022-12-05T12:01:43;4.10;99.90
9971;DHT22;5026;51.494;11.974;2022-12-05T12:04:24;4.20;99.90
9971;DHT22;5026;51.494;11.974;2022-12-05T12:07:05;4.10;99.90
9971;DHT22;5026;51.494;11.974;2022-12-05T12:09:44;4.30;99.90
9971;DHT22;5026;51.494;11.974;2022-12-05T12:12:18;4.30;99.90
9971;DHT22;5026;51.494;11.974;2022-12-05T12:14:57;4.20;99.90
9971;DHT22;5026;51.494;11.974;2022-12-05T12:17:31;4.20;99.90
9971;DHT22;5026;51.494;11.974;2022-12-05T12:20:33;4.20;99.90
9971;DHT22;5026;51.494;11.974;2022-12-05T12:23:14;4.20;99.90
9971;DHT22;5026;51.494;11.974;2022-12-05T12:25:51;4.20;99.90
9971;DHT22;5026;51.494;11.974;2022-12-05T12:28:32;4.20;99.90
9971;DHT22;5026;51.494;11.974;2022-12-05T12:31:19;4.20;99.90
9971;DHT22;5026;51.494;11.974;2022-12-05T12:33:52;4.30;99.90
9971;DHT22;5026;51.494;11.974;2022-12-05T12:36:25;4.30;99.90
9971;DHT22;5026;51.494;11.974;2022-12-05T12:39:05;4.30;99.90
9971;DHT22;5026;51.494;11.974;2022-12-05T12:41:49;4.30;99.90
9971;DHT22;5026;51.494;11.974;2022-12-05T12:44:48;4.30;99.90
9971;DHT22;5026;51.494;11.974;2022-12-05T12:47:24;4.30;99.90
9971;DHT22;5026;51.494;11.974;2022-12-05T12:50:03;4.30;99.90
9971;DHT22;5026;51.494;11.974;2022-12-05T12:52:54;4.30;99.90
9971;DHT22;5026;51.494;11.974;2022-12-05T12:55:29;4.30;99.90
9971;DHT22;5026;51.494;11.974;2022-12-05T12:58:09;4.30;99.90
9971;DHT22;5026;51.494;11.974;2022-12-05T13:00:48;4.30;99.90
9971;DHT22;5026;51.494;11.974;2022-12-05T13:03:21;4.30;99.90
9971;DHT22;5026;51.494;11.974;2022-12-05T13:05:53;4.30;99.90
9971;DHT22;5026;51.494;11.974;2022-12-05T13:08:25;4.30;99.90
9971;DHT22;5026;51.494;11.974;2022-12-05T13:10:55;4.20;99.90
9971;DHT22;5026;51.494;11.974;2022-12-05T13:13:27;4.20;99.90
9971;DHT22;5026;51.494;11.974;2022-12-05T13:16:00;4.20;99.90
9971;DHT22;5026;51.494;11.974;2022-12-05T13:18:28;4.20;99.90
9971;DHT22;5026;51.494;11.974;2022-12-05T13:20:57;4.20;99.90
9971;DHT22;5026;51.494;11.974;2022-12-05T13:23:27;4.10;99.90
9971;DHT22;5026;51.494;11.974;2022-12-05T13:25:56;4.10;99.90
9971;DHT22;5026;51.494;11.974;2022-12-05T13:28:29;4.00;99.90
9971;DHT22;5026;51.494;11.974;2022-12-05T13:30:57;4.10;99.90
9971;DHT22;5026;51.494;11.974;2022-12-05T13:33:31;4.10;99.90
9971;DHT22;5026;51.494;11.974;2022-12-05T13:36:08;4.10;99.90
9971;DHT22;5026;51.494;11.974;2022-12-05T13:38:58;4.10;99.90
9971;DHT22;5026;51.494;11.974;2022-12-05T13:41:44;4.10;99.90
9971;DHT22;5026;51.494;11.974;2022-12-05T13:44:33;4.00;99.90
9971;DHT22;5026;51.494;11.974;2022-12-05T13:47:03;4.00;99.90
9971;DHT22;5026;51.494;11.974;2022-12-05T13:49:41;4.00;99.90
9971;DHT22;5026;51.494;11.974;2022-12-05T13:52:13;4.00;99.90
9971;DHT22;5026;51.494;11.974;2022-12-05T13:54:44;4.00;99.90
9971;DHT22;5026;51.494;11.974;2022-12-05T13:57:45;4.00;99.90
9971;DHT22;5026;51.494;11.974;2022-12-05T14:00:31;4.00;99.90
9971;DHT22;5026;51.494;11.974;2022-12-05T14:03:01;4.00;99.90
9971;DHT22;5026;51.494;11.974;2022-12-05T14:05:50;3.90;99.90
9971;DHT22;5026;51.494;11.974;2022-12-05T14:08:49;3.90;99.90
9971;DHT22;5026;51.494;11.974;2022-12-05T14:11:17;3.90;99.90
9971;DHT22;5026;51.494;11.974;2022-12-05T14:13:44;3.90;99.90
9971;DHT22;5026;51.494;11.974;2022-12-05T14:22:14;3.90;99.90
9971;DHT22;5026;51.494;11.974;2022-12-05T14:24:48;3.90;99.90
9971;DHT22;5026;51.494;11.974;2022-12-05T14:27:22;3.90;99.90
9971;DHT22;5026;51.494;11.974;2022-12-05T14:30:00;3.90;99.90
9971;DHT22;5026;51.494;11.974;2022-12-05T14:32:31;3.90;99.90
9971;DHT22;5026;51.494;11.974;2022-12-05T14:35:03;3.90;99.90
9971;DHT22;5026;51.494;11.974;2022-12-05T14:37:40;3.90;99.90
9971;DHT22;5026;51.494;11.974;2022-12-05T14:40:17;3.90;99.90
9971;DHT22;5026;51.494;11.974;2022-12-05T14:42:52;3.90;99.90
9971;DHT22;5026;51.494;11.974;2022-12-05T14:45:27;3.90;99.90
9971;DHT22;5026;51.494;11.974;2022-12-05T14:47:56;3.90;99.90
9971;DHT22;5026;51.494;11.974;2022-12-05T14:50:43;3.90;99.90
9971;DHT22;5026;51.494;11.974;2022-12-05T14:53:21;3.90;99.90
9971;DHT22;5026;51.494;11.974;2022-12-05T14:55:52;3.90;99.90
9971;DHT22;5026;51.494;11.974;2022-12-05T14:58:29;3.90;99.90
9971;DHT22;5026;51.494;11.974;2022-12-05T15:00:59;3.80;99.90
9971;DHT22;5026;51.494;11.974;2022-12-05T15:03:30;3.80;99.90
9971;DHT22;5026;51.494;11.974;2022-12-05T15:06:00;3.80;99.90
9971;DHT22;5026;51.494;11.974;2022-12-05T15:08:31;3.80;99.90
9971;DHT22;5026;51.494;11.974;2022-12-05T15:10:59;3.80;99.90
9971;DHT22;5026;51.494;11.974;2022-12-05T15:13:27;3.80;99.90
9971;DHT22;5026;51.494;11.974;2022-12-05T15:16:00;3.70;99.90
9971;DHT22;5026;51.494;11.974;2022-12-05T15:18:33;3.70;99.90
9971;DHT22;5026;51.494;11.974;2022-12-05T15:21:06;3.60;99.90
9971;DHT22;5026;51.494;11.974;2022-12-05T15:23:40;3.50;99.90
9971;DHT22;5026;51.494;11.974;2022-12-05T15:26:20;3.50;99.90
9971;DHT22;5026;51.494;11.974;2022-12-05T15:29:03;3.40;99.90
9971;DHT22;5026;51.494;11.974;2022-12-05T15:31:33;3.20;99.90
9971;DHT22;5026;51.494;11.974;2022-12-05T15:34:05;3.10;99.90
9971;DHT22;5026;51.494;11.974;2022-12-05T15:36:35;2.90;99.90
9971;DHT22;5026;51.494;11.974;2022-12-05T15:39:16;2.90;99.90
9971;DHT22;5026;51.494;11.974;2022-12-05T15:41:44;2.70;99.90
9971;DHT22;5026;51.494;11.974;2022-12-05T15:49:16;2.60;99.90
9971;DHT22;5026;51.494;11.974;2022-12-05T15:51:49;2.50;99.90
9971;DHT22;5026;51.494;11.974;2022-12-05T15:54:21;2.70;99.90
9971;DHT22;5026;51.494;11.974;2022-12-05T15:56:52;2.80;99.90
9971;DHT22;5026;51.494;11.974;2022-12-05T15:59:23;2.80;99.90
9971;DHT22;5026;51.494;11.974;2022-12-05T16:01:58;2.80;99.90
9971;DHT22;5026;51.494;11.974;2022-12-05T16:04:29;2.80;99.90
9971;DHT22;5026;51.494;11.974;2022-12-05T16:07:02;2.80;99.90
9971;DHT22;5026;51.494;11.974;2022-12-05T16:09:37;2.70;99.90
9971;DHT22;5026;51.494;11.974;2022-12-05T16:12:16;2.60;99.90
9971;DHT22;5026;51.494;11.974;2022-12-05T16:14:49;2.50;99.90
9971;DHT22;5026;51.494;11.974;2022-12-05T16:17:17;2.40;99.90
9971;DHT22;5026;51.494;11.974;2022-12-05T16:19:44;2.40;99.90
9971;DHT22;5026;51.494;11.974;2022-12-05T16:22:20;2.40;99.90
9971;DHT22;5026;51.494;11.974;2022-12-05T16:24:55;2.40;99.90
9971;DHT22;5026;51.494;11.974;2022-12-05T16:27:26;2.40;99.90
9971;DHT22;5026;51.494;11.974;2022-12-05T16:30:16;2.30;99.90
9971;DHT22;5026;51.494;11.974;2022-12-05T16:32:44;2.20;99.90
9971;DHT22;5026;51.494;11.974;2022-12-05T16:35:35;2.20;99.90
9971;DHT22;5026;51.494;11.974;2022-12-05T16:38:06;2.10;99.90
9971;DHT22;5026;51.494;11.974;2022-12-05T16:40:37;2.00;99.90
9971;DHT22;5026;51.494;11.974;2022-12-05T16:43:05;2.00;99.90
9971;DHT22;5026;51.494;11.974;2022-12-05T16:45:40;2.00;99.90
9971;DHT22;5026;51.494;11.974;2022-12-05T16:48:21;1.90;99.90
9971;DHT22;5026;51.494;11.974;2022-12-05T16:50:49;1.90;99.90
9971;DHT22;5026;51.494;11.974;2022-12-05T16:53:26;1.90;99.90
9971;DHT22;5026;51.494;11.974;2022-12-05T16:55:59;1.90;99.90
9971;DHT22;5026;51.494;11.974;2022-12-05T16:58:29;1.90;99.90
9971;DHT22;5026;51.494;11.974;2022-12-05T17:01:00;1.90;99.90
9971;DHT22;5026;51.494;11.974;2022-12-05T17:03:41;1.80;99.90
9971;DHT22;5026;51.494;11.974;2022-12-05T17:11:04;1.80;99.90
9971;DHT22;5026;51.494;11.974;2022-12-05T17:20:56;1.60;99.90
9971;DHT22;5026;51.494;11.974;2022-12-05T17:23:23;1.60;99.90
9971;DHT22;5026;51.494;11.974;2022-12-05T17:25:52;1.60;99.90
9971;DHT22;5026;51.494;11.974;2022-12-05T17:28:22;1.60;99.90
9971;DHT22;5026;51.494;11.974;2022-12-05T17:33:17;1.50;99.90
9971;DHT22;5026;51.494;11.974;2022-12-05T17:40:40;1.40;99.90
9971;DHT22;5026;51.494;11.974;2022-12-05T17:43:09;1.40;99.90
9971;DHT22;5026;51.494;11.974;2022-12-05T17:45:38;1.40;99.90
9971;DHT22;5026;51.494;11.974;2022-12-05T17:53:00;1.50;99.90
9971;DHT22;5026;51.494;11.974;2022-12-05T17:55:28;1.50;99.90
9971;DHT22;5026;51.494;11.974;2022-12-05T18:00:23;1.70;99.90
9971;DHT22;5026;51.494;11.974;2022-12-05T18:02:51;1.90;99.90
9971;DHT22;5026;51.494;11.974;2022-12-05T18:07:46;2.10;99.90
9971;DHT22;5026;51.494;11.974;2022-12-05T18:10:15;2.20;99.90
9971;DHT22;5026;51.494;11.974;2022-12-05T18:15:11;2.40;99.90
9971;DHT22;5026;51.494;11.974;2022-12-05T18:17:38;2.40;99.90
9971;DHT22;5026;51.494;11.974;2022-12-05T18:20:09;2.40;99.90
9971;DHT22;5026;51.494;11.974;2022-12-05T18:22:36;2.50;99.90
9971;DHT22;5026;51.494;11.974;2022-12-05T18:25:04;2.50;99.90
9971;DHT22;5026;51.494;11.974;2022-12-05T18:27:33;2.60;99.90
9971;DHT22;5026;51.494;11.974;2022-12-05T18:30:00;2.60;99.90
9971;DHT22;5026;51.494;11.974;2022-12-05T18:32:26;2.70;99.90
9971;DHT22;5026;51.494;11.974;2022-12-05T18:37:24;2.80;99.90
9971;DHT22;5026;51.494;11.974;2022-12-05T18:39:52;2.80;99.90
9971;DHT22;5026;51.494;11.974;2022-12-05T18:47:14;2.70;99.90
9971;DHT22;5026;51.494;11.974;2022-12-05T18:52:09;2.90;99.90
9971;DHT22;5026;51.494;11.974;2022-12-05T18:54:37;2.70;99.90
9971;DHT22;5026;51.494;11.974;2022-12-05T18:57:04;2.70;99.90
9971;DHT22;5026;51.494;11.974;2022-12-05T18:59:31;2.70;99.90
9971;DHT22;5026;51.494;11.974;2022-12-05T19:04:27;2.70;99.90
9971;DHT22;5026;51.494;11.974;2022-12-05T19:06:55;3.80;99.90
9971;DHT22;5026;51.494;11.974;2022-12-05T19:09:24;2.80;99.90
9971;DHT22;5026;51.494;11.974;2022-12-05T19:11:54;3.00;99.90
9971;DHT22;5026;51.494;11.974;2022-12-05T19:14:24;2.80;99.90
9971;DHT22;5026;51.494;11.974;2022-12-05T19:16:52;4.50;99.90
9971;DHT22;5026;51.494;11.974;2022-12-05T19:19:19;2.90;99.90
9971;DHT22;5026;51.494;11.974;2022-12-05T19:21:46;2.90;99.90
9971;DHT22;5026;51.494;11.974;2022-12-05T19:24:14;2.80;99.90
9971;DHT22;5026;51.494;11.974;2022-12-05T19:26:42;2.80;99.90